Time;durP1;ratioP1;P1;durP2;ratioP2;P2;SDS_P1;SDS_P2;PMS_P1;PMS_P2;Temp;Humidity;BMP_temperature;BMP_pressure;BME280_temperature;BME280_humidity;BME280_pressure;Samples;Min_cycle;Max_cycle;Signal;HPM_P1;HPM_P2
2023/01/02 00:00:49;;;;;;;1.98;0.80;;;19.30;67.50;;;;;;2287924;55;20989;-85
2023/01/02 00:03:16;;;;;;;2.10;0.70;;;19.30;67.50;;;;;;2521371;54;20905;-85
2023/01/02 00:05:42;;;;;;;4.53;1.20;;;19.30;67.60;;;;;;2287918;55;20996;-83
2023/01/02 00:08:08;;;;;;;2.20;0.80;;;19.30;67.50;;;;;;2521913;54;20981;-85
2023/01/02 00:10:35;;;;;;;5.12;1.02;;;19.40;67.60;;;;;;2525356;54;20981;-85
2023/01/02 00:13:01;;;;;;;3.97;1.20;;;19.40;67.70;;;;;;2525442;54;20991;-84
2023/01/02 00:15:27;;;;;;;3.30;1.12;;;19.40;67.70;;;;;;2291110;55;20949;-83
2023/01/02 00:17:54;;;;;;;3.03;1.08;;;19.40;67.40;;;;;;2525543;54;21534;-83
2023/01/02 00:20:21;;;;;;;2.85;1.02;;;19.40;67.50;;;;;;2525158;54;20996;-84
2023/01/02 00:22:47;;;;;;;3.35;1.10;;;19.40;67.50;;;;;;2291695;55;20993;-84
2023/01/02 00:25:14;;;;;;;4.35;0.80;;;19.50;67.60;;;;;;2291811;55;21020;-83
2023/01/02 00:27:40;;;;;;;4.10;0.95;;;19.50;67.60;;;;;;2291985;55;20929;-84
2023/01/02 00:30:08;;;;;;;3.08;0.90;;;19.40;67.30;;;;;;2524625;54;20974;-85
2023/01/02 00:32:34;;;;;;;2.97;1.05;;;19.50;67.20;;;;;;2291704;55;21481;-85
2023/01/02 00:35:00;;;;;;;3.92;1.02;;;19.50;67.30;;;;;;2291883;55;20953;-85
2023/01/02 00:37:27;;;;;;;2.90;0.80;;;19.40;67.10;;;;;;2525727;54;20941;-85
2023/01/02 00:39:53;;;;;;;4.53;1.42;;;19.50;67.30;;;;;;2291507;55;20949;-84
2023/01/02 00:42:20;;;;;;;3.05;1.00;;;19.50;67.10;;;;;;2525665;54;21001;-84
2023/01/02 00:44:46;;;;;;;1.85;0.80;;;19.50;67.10;;;;;;2292133;55;20941;-83
2023/01/02 00:47:12;;;;;;;3.50;1.02;;;19.50;67.30;;;;;;2313931;55;21849;-85
2023/01/02 00:49:38;;;;;;;3.37;0.98;;;19.50;67.20;;;;;;2319436;55;20934;-85
2023/01/02 00:52:05;;;;;;;6.90;1.20;;;19.50;67.10;;;;;;2319517;55;21367;-84
2023/01/02 00:54:31;;;;;;;4.18;1.20;;;19.50;67.20;;;;;;2320553;55;21070;-85
2023/01/02 00:56:57;;;;;;;2.90;1.20;;;19.50;67.00;;;;;;2560638;54;21001;-85
2023/01/02 00:59:24;;;;;;;3.03;1.12;;;19.40;66.90;;;;;;2320988;55;20938;-85
2023/01/02 01:01:50;;;;;;;3.85;0.90;;;19.40;66.70;;;;;;2560328;54;20982;-85
2023/01/02 01:04:16;;;;;;;4.35;0.85;;;19.40;66.60;;;;;;2560156;54;20935;-84
2023/01/02 01:06:42;;;;;;;3.33;1.05;;;19.40;66.60;;;;;;2320256;55;21041;-84
2023/01/02 01:09:09;;;;;;;2.45;0.82;;;19.40;66.60;;;;;;2558786;54;20926;-83
2023/01/02 01:11:35;;;;;;;3.17;1.10;;;19.40;66.50;;;;;;2319153;55;20942;-84
2023/01/02 01:14:02;;;;;;;4.40;1.17;;;19.40;66.60;;;;;;2318775;55;21006;-84
2023/01/02 01:16:29;;;;;;;4.10;1.08;;;19.40;66.70;;;;;;2318665;55;20974;-84
2023/01/02 01:18:55;;;;;;;3.15;1.00;;;19.40;66.90;;;;;;2558775;54;21463;-84
2023/01/02 01:21:22;;;;;;;3.60;1.10;;;19.30;66.60;;;;;;2318638;55;20954;-84
2023/01/02 01:23:52;;;;;;;2.53;0.90;;;19.40;66.70;;;;;;2321650;55;20919;-85
2023/01/02 01:26:19;;;;;;;2.20;0.90;;;19.40;66.20;;;;;;2558336;54;20919;-84
2023/01/02 01:28:45;;;;;;;3.78;1.08;;;19.30;66.70;;;;;;2558929;54;20906;-85
2023/01/02 01:31:13;;;;;;;4.30;1.17;;;19.30;67.30;;;;;;2557706;54;20954;-86
2023/01/02 01:33:39;;;;;;;3.17;1.00;;;19.30;66.60;;;;;;2558017;54;21037;-84
2023/01/02 01:36:16;;;;;;;3.20;0.90;;;19.30;66.60;;;;;;2558562;54;20970;-85
2023/01/02 01:38:43;;;;;;;2.25;0.98;;;19.30;65.50;;;;;;2555321;54;21002;-84
2023/01/02 01:41:13;;;;;;;5.25;0.90;;;19.30;66.80;;;;;;2556617;54;20997;-85
2023/01/02 01:43:53;;;;;;;2.85;0.80;;;19.30;66.10;;;;;;2557781;54;20958;-85
2023/01/02 01:46:44;;;;;;;2.58;1.17;;;19.30;66.20;;;;;;2557749;54;21014;-85
2023/01/02 01:49:24;;;;;;;3.03;0.98;;;19.40;65.20;;;;;;2317931;55;21943;-85
2023/01/02 01:51:53;;;;;;;2.08;0.75;;;19.40;65.80;;;;;;2557545;54;20939;-84
2023/01/02 01:54:23;;;;;;;3.10;1.27;;;19.30;67.10;;;;;;2558005;54;21074;-84
2023/01/02 01:56:51;;;;;;;2.45;0.80;;;19.40;67.20;;;;;;2530680;54;20958;-85
2023/01/02 01:59:18;;;;;;;3.42;1.10;;;19.30;67.20;;;;;;2525108;54;21059;-84
2023/01/02 02:01:45;;;;;;;2.37;0.80;;;19.40;67.40;;;;;;2270090;55;21064;-84
2023/01/02 02:04:11;;;;;;;3.75;0.90;;;19.30;67.30;;;;;;2524644;54;21091;-84
2023/01/02 02:06:37;;;;;;;3.15;1.00;;;19.30;67.20;;;;;;2525453;54;20932;-84
2023/01/02 02:09:20;;;;;;;2.47;0.88;;;19.30;67.00;;;;;;2291294;55;20948;-84
2023/01/02 02:11:48;;;;;;;2.20;0.80;;;19.30;65.20;;;;;;2318270;54;20971;-85
2023/01/02 02:14:14;;;;;;;3.87;0.90;;;19.30;67.90;;;;;;2557142;53;20896;-83
2023/01/02 02:17:06;;;;;;;3.50;0.73;;;19.30;67.10;;;;;;2557440;53;20975;-84
2023/01/02 02:26:39;;;;;;;1.73;0.80;;;19.30;66.70;;;;;;2557532;53;20945;-84
2023/01/02 02:29:38;;;;;;;2.22;0.73;;;19.30;65.20;;;;;;2317890;54;21839;-85
2023/01/02 02:32:54;;;;;;;5.20;1.27;;;19.30;65.30;;;;;;2556313;53;20902;-83
2023/01/02 02:39:50;;;;;;;3.28;0.80;;;19.30;64.20;;;;;;2557182;53;20972;-85
2023/01/02 02:42:49;;;;;;;1.95;0.57;;;19.20;64.60;;;;;;2290959;54;20914;-85
2023/01/02 02:45:30;;;;;;;2.20;0.80;;;19.30;65.50;;;;;;2317575;54;20947;-84
2023/01/02 02:48:06;;;;;;;8.00;1.00;;;19.30;66.40;;;;;;2556885;53;20950;-85
2023/01/02 02:50:42;;;;;;;1.77;0.65;;;19.30;66.50;;;;;;2557279;53;20991;-84
2023/01/02 02:53:12;;;;;;;2.53;0.80;;;19.30;65.70;;;;;;2556529;53;21003;-83
2023/01/02 02:55:43;;;;;;;2.58;0.77;;;19.30;66.80;;;;;;2318372;54;21487;-84
2023/01/02 02:58:11;;;;;;;2.60;0.87;;;19.20;65.90;;;;;;2317799;54;20986;-85
2023/01/02 03:00:37;;;;;;;4.15;0.95;;;19.30;66.80;;;;;;2556821;53;21035;-83
2023/01/02 03:03:22;;;;;;;2.65;0.77;;;19.30;66.80;;;;;;2556789;53;20937;-84
2023/01/02 03:09:43;;;;;;;1.48;0.70;;;19.30;64.90;;;;;;2557574;53;21719;-83
2023/01/02 03:15:13;;;;;;;2.58;0.60;;;19.50;64.40;;;;;;2556595;53;20922;-83
2023/01/02 03:19:14;;;;;;;1.92;0.60;;;19.50;66.40;;;;;;2317797;54;20935;-84
2023/01/02 03:23:03;;;;;;;2.10;0.70;;;19.50;63.70;;;;;;2317553;54;20983;-85
2023/01/02 03:25:31;;;;;;;2.28;0.70;;;19.50;63.60;;;;;;2317529;54;20979;-86
2023/01/02 03:27:58;;;;;;;2.80;0.90;;;19.60;67.00;;;;;;2556826;53;22087;-84
2023/01/02 03:30:24;;;;;;;2.25;0.80;;;19.50;66.70;;;;;;2557428;53;21133;-83
2023/01/02 03:32:59;;;;;;;2.17;0.70;;;19.50;66.20;;;;;;2557879;53;20955;-84
2023/01/02 03:35:36;;;;;;;2.25;0.65;;;19.60;65.00;;;;;;2558132;53;21046;-83
2023/01/02 03:38:04;;;;;;;3.28;0.80;;;19.60;64.30;;;;;;2557512;53;21407;-85
2023/01/02 03:40:34;;;;;;;2.78;0.68;;;19.60;66.00;;;;;;2317739;54;21011;-84
2023/01/02 03:43:12;;;;;;;4.87;0.90;;;19.60;65.30;;;;;;2557739;53;20975;-85
2023/01/02 03:47:23;;;;;;;2.00;0.68;;;19.60;65.70;;;;;;2318493;54;20971;-84
2023/01/02 03:49:52;;;;;;;2.53;0.70;;;19.70;62.40;;;;;;2500993;54;20980;-84
2023/01/02 03:52:18;;;;;;;3.85;0.70;;;19.70;65.60;;;;;;2550726;53;21022;-84
2023/01/02 03:54:48;;;;;;;2.10;0.80;;;19.70;65.70;;;;;;2494454;54;20976;-83
2023/01/02 04:04:13;;;;;;;2.05;0.77;;;19.60;65.50;;;;;;2291444;55;21979;-84
2023/01/02 04:06:41;;;;;;;1.92;0.50;;;19.70;63.50;;;;;;2525785;54;21879;-85
2023/01/02 04:09:12;;;;;;;2.33;0.60;;;19.70;66.20;;;;;;2291351;55;21508;-84
2023/01/02 04:11:40;;;;;;;2.28;0.60;;;19.60;65.20;;;;;;2525554;54;20984;-83
2023/01/02 04:15:36;;;;;;;2.12;0.60;;;19.60;65.70;;;;;;2291713;55;21040;-84
2023/01/02 04:18:36;;;;;;;2.25;0.60;;;19.70;62.20;;;;;;2291394;55;20939;-85
2023/01/02 04:21:06;;;;;;;2.20;0.55;;;19.60;63.60;;;;;;2524958;54;20952;-84
2023/01/02 04:23:39;;;;;;;2.90;0.75;;;19.60;65.40;;;;;;2525911;54;20988;-85
2023/01/02 04:26:17;;;;;;;3.25;0.75;;;19.50;64.70;;;;;;2525177;54;20920;-83
2023/01/02 04:28:43;;;;;;;1.90;0.70;;;19.50;64.50;;;;;;2525678;54;21044;-84
2023/01/02 04:31:14;;;;;;;2.45;0.80;;;19.50;65.40;;;;;;2287428;54;20928;-84
2023/01/02 04:33:52;;;;;;;8.43;1.05;;;19.50;64.60;;;;;;2525509;54;20996;-84
2023/01/02 04:36:18;;;;;;;2.78;0.70;;;19.50;64.30;;;;;;2525420;54;20943;-84
2023/01/02 04:38:45;;;;;;;1.70;0.47;;;19.50;64.80;;;;;;2525540;54;20912;-84
2023/01/02 04:41:19;;;;;;;2.83;0.80;;;19.40;64.50;;;;;;2290919;54;20956;-84
2023/01/02 04:43:47;;;;;;;4.20;0.80;;;19.40;63.70;;;;;;2526400;54;20991;-84
2023/01/02 04:46:14;;;;;;;3.25;0.80;;;19.40;64.30;;;;;;2291436;55;21020;-83
2023/01/02 04:48:40;;;;;;;1.67;0.70;;;19.40;64.20;;;;;;2525698;54;21227;-85
2023/01/02 04:51:07;;;;;;;2.03;0.70;;;19.40;64.10;;;;;;2524909;54;21817;-84
2023/01/02 04:53:33;;;;;;;3.62;0.80;;;19.30;64.10;;;;;;2526121;54;21019;-84
2023/01/02 04:55:59;;;;;;;2.37;0.65;;;19.30;64.20;;;;;;2525269;54;21057;-83
2023/01/02 04:58:26;;;;;;;2.22;0.70;;;19.30;64.30;;;;;;2291837;55;21020;-84
2023/01/02 05:00:53;;;;;;;2.72;0.70;;;19.30;64.30;;;;;;2526118;54;21036;-83
2023/01/02 05:03:20;;;;;;;2.37;0.73;;;19.30;64.30;;;;;;2501356;54;20966;-83
2023/01/02 05:05:46;;;;;;;4.12;0.73;;;19.20;63.90;;;;;;2293533;54;20972;-84
2023/01/02 05:08:13;;;;;;;2.33;0.73;;;19.20;64.00;;;;;;2527713;54;21021;-85
2023/01/02 05:10:41;;;;;;;3.92;0.70;;;19.20;63.90;;;;;;2528214;54;20977;-84
2023/01/02 05:13:08;;;;;;;4.20;0.82;;;19.10;63.90;;;;;;2529060;54;20933;-83
2023/01/02 05:15:34;;;;;;;2.97;0.75;;;19.10;64.10;;;;;;2527718;54;20962;-85
2023/01/02 05:18:00;;;;;;;2.35;0.80;;;19.10;64.30;;;;;;2526419;54;20969;-84
2023/01/02 05:20:26;;;;;;;2.70;0.80;;;19.00;64.30;;;;;;2526376;54;21799;-84
2023/01/02 05:25:38;;;;;;;2.75;0.90;;;19.00;64.30;;;;;;2526030;54;21832;-84
2023/01/02 05:28:04;;;;;;;2.05;0.70;;;18.90;64.30;;;;;;2525518;54;21017;-84
2023/01/02 05:30:30;;;;;;;2.70;0.62;;;18.90;64.40;;;;;;2292054;54;22280;-84
2023/01/02 05:32:57;;;;;;;1.92;0.82;;;18.90;64.50;;;;;;2525087;54;20925;-85
2023/01/02 05:35:23;;;;;;;3.55;0.80;;;18.80;64.30;;;;;;2525870;54;20969;-83
2023/01/02 05:37:53;;;;;;;3.37;1.00;;;18.80;64.20;;;;;;2526092;54;21017;-82
2023/01/02 05:40:20;;;;;;;1.73;0.77;;;18.70;64.00;;;;;;2525606;54;20910;-83
2023/01/02 05:42:46;;;;;;;1.62;0.73;;;18.70;64.00;;;;;;2292147;54;22346;-84
2023/01/02 05:45:13;;;;;;;3.92;1.00;;;18.70;64.00;;;;;;2292046;54;20985;-85
2023/01/02 05:47:39;;;;;;;3.40;0.90;;;18.60;63.80;;;;;;2291883;54;20953;-83
2023/01/02 05:50:06;;;;;;;4.68;0.88;;;18.60;63.80;;;;;;2525365;54;22065;-84
2023/01/02 05:52:34;;;;;;;2.70;0.90;;;18.60;63.70;;;;;;2291865;54;20929;-85
2023/01/02 05:55:03;;;;;;;2.25;0.82;;;18.50;63.60;;;;;;2524706;54;20966;-84
2023/01/02 05:57:30;;;;;;;2.85;1.15;;;18.50;63.60;;;;;;2525975;54;20974;-84
2023/01/02 05:59:56;;;;;;;2.67;0.95;;;18.40;63.60;;;;;;2524879;54;20954;-84
2023/01/02 06:02:24;;;;;;;2.12;0.70;;;18.40;63.80;;;;;;2291518;55;20949;-84
2023/01/02 06:04:50;;;;;;;4.28;0.95;;;18.40;63.70;;;;;;2292433;55;21501;-84
2023/01/02 06:07:16;;;;;;;3.55;1.00;;;18.30;63.60;;;;;;2525685;54;20905;-85
2023/01/02 06:09:43;;;;;;;4.72;1.08;;;18.30;63.70;;;;;;2525935;54;21001;-85
2023/01/02 06:12:09;;;;;;;2.50;0.93;;;18.30;63.70;;;;;;2524724;54;20945;-83
2023/01/02 06:14:36;;;;;;;3.00;1.17;;;18.20;63.70;;;;;;2526310;54;21017;-85
2023/01/02 06:17:03;;;;;;;4.68;1.02;;;18.20;63.60;;;;;;2292528;55;20957;-84
2023/01/02 06:19:29;;;;;;;3.50;1.05;;;18.20;63.60;;;;;;2525347;54;20925;-85
2023/01/02 06:21:55;;;;;;;4.47;1.02;;;18.20;63.70;;;;;;2291669;55;20917;-84
2023/01/02 06:24:22;;;;;;;3.28;1.00;;;18.10;63.70;;;;;;2524250;54;20929;-84
2023/01/02 06:26:48;;;;;;;4.15;0.85;;;18.10;63.70;;;;;;2291403;55;21928;-83
2023/01/02 06:29:15;;;;;;;5.85;1.27;;;18.10;63.80;;;;;;2291105;55;20994;-83
2023/01/02 06:31:41;;;;;;;3.53;1.62;;;18.10;63.80;;;;;;2525677;54;20936;-84
2023/01/02 06:34:09;;;;;;;2.97;1.08;;;18.10;63.80;;;;;;2291430;55;21062;-85
2023/01/02 06:36:35;;;;;;;2.92;1.00;;;18.10;63.80;;;;;;2526109;54;21002;-83
2023/01/02 06:39:01;;;;;;;2.60;0.80;;;18.00;63.80;;;;;;2525096;54;20937;-85
2023/01/02 06:41:28;;;;;;;2.83;0.90;;;18.00;63.80;;;;;;2291550;55;21009;-85
2023/01/02 06:43:54;;;;;;;2.35;0.62;;;18.00;64.00;;;;;;2525447;54;20929;-85
2023/01/02 06:46:21;;;;;;;3.47;0.80;;;18.00;64.00;;;;;;2526282;54;21474;-85
2023/01/02 06:48:47;;;;;;;2.90;1.00;;;18.00;63.90;;;;;;2291807;55;20957;-84
2023/01/02 06:51:16;;;;;;;2.10;0.90;;;18.00;63.90;;;;;;2525041;54;20937;-84
2023/01/02 06:53:43;;;;;;;1.58;0.60;;;18.00;63.80;;;;;;2291840;55;21260;-85
2023/01/02 06:56:10;;;;;;;3.62;0.70;;;18.00;63.90;;;;;;2290974;55;20995;-85
2023/01/02 06:58:36;;;;;;;3.58;1.00;;;18.00;63.80;;;;;;2525875;54;20937;-84
2023/01/02 07:01:10;;;;;;;2.62;0.75;;;18.00;63.80;;;;;;2524798;54;21525;-85
2023/01/02 07:03:36;;;;;;;4.10;0.90;;;18.10;62.60;;;;;;2525315;54;22035;-83
2023/01/02 07:06:04;;;;;;;2.67;0.90;;;18.10;63.90;;;;;;2525230;54;20941;-84
2023/01/02 07:08:30;;;;;;;3.40;1.00;;;18.10;63.80;;;;;;2525597;54;21026;-83
2023/01/02 07:11:16;;;;;;;3.00;0.70;;;18.10;63.90;;;;;;2525346;54;20945;-83
2023/01/02 07:13:43;;;;;;;2.90;1.00;;;18.10;62.30;;;;;;2292107;55;21007;-84
2023/01/02 07:16:11;;;;;;;3.12;0.95;;;18.20;63.90;;;;;;2525249;54;22388;-83
2023/01/02 07:18:37;;;;;;;3.78;0.90;;;18.20;63.60;;;;;;2525798;54;20984;-82
2023/01/02 07:21:05;;;;;;;4.70;1.10;;;18.20;63.60;;;;;;2524892;54;20989;-84
2023/01/02 07:23:31;;;;;;;2.25;0.77;;;18.20;63.60;;;;;;2292058;55;21560;-85
2023/01/02 07:25:58;;;;;;;3.37;0.80;;;18.30;63.70;;;;;;2525614;54;21007;-84
2023/01/02 07:28:25;;;;;;;4.72;1.42;;;18.30;63.50;;;;;;2291677;55;22050;-84
2023/01/02 07:30:55;;;;;;;4.10;1.10;;;18.20;63.30;;;;;;2525762;54;21041;-82
2023/01/02 07:33:22;;;;;;;2.58;0.75;;;18.30;62.80;;;;;;2291693;55;22074;-84
2023/01/02 07:35:48;;;;;;;4.62;0.90;;;18.30;63.50;;;;;;2526120;54;20989;-83
2023/01/02 07:38:14;;;;;;;3.55;0.95;;;18.40;63.60;;;;;;2524767;54;20945;-83
2023/01/02 07:40:41;;;;;;;3.90;0.85;;;18.40;63.40;;;;;;2525924;54;21020;-85
2023/01/02 07:43:07;;;;;;;3.65;1.00;;;18.40;63.50;;;;;;2525168;54;20909;-84
2023/01/02 07:45:34;;;;;;;3.17;0.80;;;18.40;63.60;;;;;;2526322;54;20977;-83
2023/01/02 07:48:00;;;;;;;2.58;0.73;;;18.40;63.50;;;;;;2526068;54;20998;-85
2023/01/02 07:50:26;;;;;;;2.58;0.80;;;18.50;63.60;;;;;;2525709;54;20988;-83
2023/01/02 07:52:52;;;;;;;1.92;0.77;;;18.50;63.60;;;;;;2527555;54;21091;-85
2023/01/02 07:55:19;;;;;;;3.50;0.80;;;18.50;63.40;;;;;;2297533;55;20929;-83
2023/01/02 07:57:49;;;;;;;3.25;0.80;;;18.50;63.30;;;;;;2527130;54;21890;-84
2023/01/02 08:00:16;;;;;;;3.03;0.85;;;18.50;63.10;;;;;;2292504;55;20949;-84
2023/01/02 08:02:43;;;;;;;2.35;0.80;;;18.60;63.20;;;;;;2527614;54;21012;-83
2023/01/02 08:05:09;;;;;;;2.72;0.90;;;18.60;63.10;;;;;;2292580;55;21822;-85
2023/01/02 08:07:35;;;;;;;2.85;0.90;;;18.60;63.10;;;;;;2294034;55;20913;-84
2023/01/02 08:10:05;;;;;;;5.07;0.85;;;18.60;63.10;;;;;;2292860;55;21521;-84
2023/01/02 08:12:31;;;;;;;3.40;0.80;;;18.60;63.20;;;;;;2293620;55;21001;-85
2023/01/02 08:14:58;;;;;;;4.65;1.37;;;18.60;63.30;;;;;;2527479;54;21753;-83
2023/01/02 08:17:24;;;;;;;4.55;1.12;;;18.60;63.10;;;;;;2527498;54;21889;-85
2023/01/02 08:19:51;;;;;;;3.78;0.82;;;18.60;63.20;;;;;;2293455;55;21497;-84
2023/01/02 08:22:17;;;;;;;3.28;0.90;;;18.70;63.30;;;;;;2525653;54;20937;-83
2023/01/02 08:24:44;;;;;;;3.45;0.90;;;18.70;63.30;;;;;;2293509;55;20985;-83
2023/01/02 08:27:10;;;;;;;4.85;0.80;;;18.70;63.20;;;;;;2525938;54;20941;-84
2023/01/02 08:29:36;;;;;;;3.80;0.93;;;18.70;63.10;;;;;;2520716;54;20904;-84
2023/01/02 08:32:03;;;;;;;3.95;0.88;;;18.70;63.30;;;;;;2523442;54;21060;-83
2023/01/02 08:34:29;;;;;;;3.65;1.08;;;18.70;63.30;;;;;;2553087;54;20935;-84
2023/01/02 08:36:56;;;;;;;4.18;1.00;;;18.80;63.40;;;;;;2319717;55;20935;-83
2023/01/02 08:39:22;;;;;;;2.40;0.88;;;18.80;63.30;;;;;;2303329;55;21004;-85
2023/01/02 08:41:48;;;;;;;3.90;0.80;;;18.80;63.30;;;;;;2556837;54;20966;-83
2023/01/02 08:44:16;;;;;;;1.90;0.70;;;18.90;63.30;;;;;;2559044;54;20949;-84
2023/01/02 08:46:42;;;;;;;3.28;1.10;;;18.90;63.30;;;;;;2559734;54;20966;-84
2023/01/02 08:49:09;;;;;;;4.53;1.27;;;18.90;63.20;;;;;;2558888;54;20938;-85
2023/01/02 08:51:35;;;;;;;5.18;1.02;;;18.90;63.10;;;;;;2560270;54;20930;-85
2023/01/02 08:54:02;;;;;;;3.53;0.93;;;19.00;63.20;;;;;;2534188;54;20937;-85
2023/01/02 08:56:30;;;;;;;2.85;1.10;;;19.00;63.00;;;;;;2560189;54;21821;-85
2023/01/02 08:59:06;;;;;;;5.93;0.80;;;19.00;62.90;;;;;;2560366;54;21395;-85
2023/01/02 09:01:33;;;;;;;3.92;1.30;;;19.10;62.90;;;;;;2323974;55;21803;-83
2023/01/02 09:03:59;;;;;;;4.53;1.77;;;19.10;63.10;;;;;;2314367;54;20991;-85
2023/01/02 09:06:27;;;;;;;3.75;1.50;;;19.10;62.90;;;;;;2559379;53;20951;-83
2023/01/02 09:08:54;;;;;;;4.32;1.45;;;19.20;62.80;;;;;;2560098;53;20963;-85
2023/01/02 09:11:26;;;;;;;4.37;1.98;;;19.20;62.80;;;;;;2559641;53;20990;-83
2023/01/02 09:13:52;;;;;;;7.70;1.92;;;19.20;62.60;;;;;;2561089;53;20991;-84
2023/01/02 09:16:19;;;;;;;2.90;1.40;;;19.20;62.60;;;;;;2321257;54;20935;-86
2023/01/02 09:18:45;;;;;;;4.97;1.70;;;19.20;62.40;;;;;;2561648;53;20990;-83
2023/01/02 09:21:11;;;;;;;2.92;1.02;;;19.20;62.30;;;;;;2561351;53;20991;-83
2023/01/02 09:23:39;;;;;;;5.35;1.45;;;19.20;62.20;;;;;;2561960;53;21696;-84
2023/01/02 09:26:06;;;;;;;3.45;1.00;;;19.20;62.20;;;;;;2322145;54;20979;-85
2023/01/02 09:28:33;;;;;;;2.50;1.00;;;19.20;62.10;;;;;;2562588;53;20974;-84
2023/01/02 09:30:59;;;;;;;2.58;0.95;;;19.20;62.30;;;;;;2561792;53;20972;-84
2023/01/02 09:33:25;;;;;;;4.10;1.25;;;19.20;62.40;;;;;;2561962;53;21812;-83
2023/01/02 09:35:52;;;;;;;2.95;1.10;;;19.20;62.40;;;;;;2560914;53;21003;-85
2023/01/02 09:38:18;;;;;;;4.47;1.50;;;19.20;62.50;;;;;;2318503;54;21026;-85
2023/01/02 09:40:48;;;;;;;4.72;1.45;;;19.20;62.40;;;;;;2558270;53;21015;-86
2023/01/02 09:43:17;;;;;;;5.57;1.20;;;19.20;61.40;;;;;;2318298;54;20947;-85
2023/01/02 09:45:43;;;;;;;3.65;1.08;;;19.20;62.00;;;;;;2560028;53;20947;-85
2023/01/02 09:48:15;;;;;;;3.80;1.17;;;19.20;62.10;;;;;;2535349;53;21034;-83
2023/01/02 09:50:41;;;;;;;4.45;1.10;;;19.20;61.70;;;;;;2555842;53;21027;-88
2023/01/02 09:53:08;;;;;;;2.90;1.10;;;19.20;62.10;;;;;;2562812;53;20973;-88
2023/01/02 09:56:39;;;;;;;3.40;1.25;;;19.20;62.00;;;;;;2562653;53;21030;-87
2023/01/02 09:59:25;;;;;;;3.37;1.20;;;19.30;59.20;;;;;;2527022;54;20970;-85
2023/01/02 10:03:43;;;;;;;4.60;1.20;;;19.30;62.20;;;;;;2322509;55;21869;-84
2023/01/02 10:06:15;;;;;;;5.78;1.10;;;19.30;59.60;;;;;;2562416;54;20914;-83
2023/01/02 10:09:48;;;;;;;3.07;1.03;;;19.30;62.00;;;;;;2322806;55;21058;-84
2023/01/02 10:12:31;;;;;;;4.45;1.62;;;19.40;60.00;;;;;;2321906;55;20934;-83
2023/01/02 10:15:09;;;;;;;4.35;1.08;;;19.40;63.00;;;;;;2563346;54;21085;-83
2023/01/02 10:17:38;;;;;;;5.78;1.60;;;19.50;62.30;;;;;;2562619;54;20982;-82
2023/01/02 10:20:20;;;;;;;5.47;1.20;;;19.50;62.70;;;;;;2560934;53;21047;-85
2023/01/02 10:22:51;;;;;;;3.87;1.40;;;19.50;62.60;;;;;;2561427;53;22049;-86
2023/01/02 10:25:43;;;;;;;4.85;1.12;;;19.50;62.80;;;;;;2559980;53;21022;-82
2023/01/02 10:28:27;;;;;;;5.47;1.30;;;19.50;59.90;;;;;;2562267;53;20968;-87
2023/01/02 10:31:04;;;;;;;4.32;1.27;;;19.70;60.60;;;;;;2543943;53;21050;-86
2023/01/02 10:33:56;;;;;;;6.35;1.23;;;19.70;61.30;;;;;;2530997;54;20932;-89
2023/01/02 10:36:27;;;;;;;3.40;1.23;;;19.70;59.70;;;;;;2294332;55;20931;-83
2023/01/02 10:38:57;;;;;;;4.57;1.30;;;19.80;61.80;;;;;;2528566;54;20912;-83
2023/01/02 10:41:24;;;;;;;5.22;1.60;;;19.80;61.80;;;;;;2528095;54;20932;-83
2023/01/02 10:43:56;;;;;;;5.47;1.23;;;19.90;62.30;;;;;;2294965;55;20979;-82
2023/01/02 10:46:22;;;;;;;3.93;1.40;;;19.90;62.30;;;;;;2528431;54;20928;-83
2023/01/02 10:48:49;;;;;;;3.85;1.20;;;19.90;62.30;;;;;;2528703;54;20940;-84
2023/01/02 10:51:17;;;;;;;6.15;1.55;;;20.00;62.10;;;;;;2293141;55;20924;-84
2023/01/02 10:53:44;;;;;;;6.93;1.10;;;20.00;61.70;;;;;;2293985;55;20971;-84
2023/01/02 10:56:18;;;;;;;7.53;1.83;;;20.10;61.70;;;;;;2527711;54;20924;-81
2023/01/02 10:58:46;;;;;;;5.68;1.60;;;20.10;60.50;;;;;;2294030;55;20992;-85
2023/01/02 11:01:19;;;;;;;7.53;1.37;;;20.20;61.40;;;;;;2526583;54;20983;-82
2023/01/02 11:03:46;;;;;;;3.50;1.05;;;20.20;61.60;;;;;;2528230;54;20936;-84
2023/01/02 11:06:26;;;;;;;6.12;1.40;;;20.20;61.70;;;;;;2293411;55;20943;-83
2023/01/02 11:09:51;;;;;;;4.40;1.33;;;20.30;60.00;;;;;;2294286;55;20979;-83
2023/01/02 11:12:19;;;;;;;2.80;1.00;;;20.30;59.00;;;;;;2292887;55;20988;-83
2023/01/02 11:14:49;;;;;;;2.78;1.10;;;20.30;61.70;;;;;;2528309;54;21532;-84
2023/01/02 11:17:19;;;;;;;7.50;1.20;;;20.30;61.40;;;;;;2293171;55;20912;-83
2023/01/02 11:19:50;;;;;;;4.75;1.40;;;20.40;61.20;;;;;;2294539;55;20928;-85
2023/01/02 11:22:18;;;;;;;5.12;1.33;;;20.40;61.40;;;;;;2527401;54;20916;-84
2023/01/02 11:24:57;;;;;;;6.68;1.70;;;20.40;61.40;;;;;;2528514;54;20972;-83
2023/01/02 11:27:33;;;;;;;5.05;1.33;;;20.40;61.10;;;;;;2293675;55;20916;-83
2023/01/02 11:30:00;;;;;;;4.40;1.40;;;20.50;60.90;;;;;;2528075;54;20925;-83
2023/01/02 11:32:39;;;;;;;5.70;1.60;;;20.50;61.50;;;;;;2518085;54;21076;-84
2023/01/02 11:35:34;;;;;;;7.28;1.25;;;20.50;60.00;;;;;;2527498;54;20961;-85
2023/01/02 11:38:01;;;;;;;4.87;1.45;;;20.50;61.30;;;;;;2527646;54;21413;-83
2023/01/02 11:40:29;;;;;;;4.15;1.30;;;20.60;61.20;;;;;;2527910;54;21031;-84
2023/01/02 11:45:41;;;;;;;4.80;1.15;;;20.50;61.00;;;;;;2293230;55;21019;-85
2023/01/02 11:48:13;;;;;;;4.12;1.23;;;20.50;61.20;;;;;;2389481;54;1645086;-83
2023/01/02 11:50:40;;;;;;;3.90;1.20;;;20.50;60.40;;;;;;2292973;55;21001;-81
2023/01/02 11:53:26;;;;;;;3.80;1.05;;;20.60;61.20;;;;;;2527354;54;20928;-82
2023/01/02 11:55:58;;;;;;;9.85;1.83;;;20.50;60.80;;;;;;2527362;54;21037;-81
2023/01/02 11:58:35;;;;;;;7.53;2.00;;;20.50;60.80;;;;;;2293143;55;20944;-83
2023/01/02 12:01:38;;;;;;;5.90;1.58;;;20.50;60.90;;;;;;2526793;54;20960;-81
2023/01/02 12:04:05;;;;;;;7.60;2.33;;;20.60;59.30;;;;;;2308149;55;21006;-82
2023/01/02 12:08:10;;;;;;;4.22;1.48;;;20.50;61.10;;;;;;2559995;54;20887;-84
2023/01/02 12:13:36;;;;;;;5.68;1.30;;;20.50;60.30;;;;;;2323417;55;21776;-81
2023/01/02 12:16:14;;;;;;;3.17;1.05;;;20.60;59.00;;;;;;2560548;54;20982;-83
2023/01/02 12:20:29;;;;;;;3.75;1.40;;;20.60;60.80;;;;;;2561010;54;20998;-83
2023/01/02 12:23:24;;;;;;;3.42;1.00;;;20.60;59.40;;;;;;2319993;55;20926;-82
2023/01/02 12:26:18;;;;;;;6.78;2.30;;;20.60;61.50;;;;;;2560741;54;21426;-81
2023/01/02 12:29:30;;;;;;;5.53;1.87;;;20.60;59.40;;;;;;2320738;55;20926;-82
2023/01/02 12:33:53;;;;;;;7.28;1.70;;;20.60;59.20;;;;;;2560174;54;20930;-83
2023/01/02 12:36:48;;;;;;;5.57;1.52;;;20.60;59.30;;;;;;2319770;55;21078;-82
2023/01/02 12:39:40;;;;;;;5.72;1.52;;;20.60;59.40;;;;;;2319862;55;21680;-83
2023/01/02 12:44:00;;;;;;;5.78;1.50;;;20.50;59.10;;;;;;2560632;54;20919;-81
2023/01/02 12:53:32;;;;;;;4.07;1.37;;;20.50;59.10;;;;;;2560762;54;20951;-81
2023/01/02 12:56:09;;;;;;;4.03;1.20;;;20.50;60.30;;;;;;2320249;55;21132;-81
2023/01/02 13:02:13;;;;;;;6.80;1.37;;;20.40;61.10;;;;;;2320919;55;21017;-84
2023/01/02 13:04:41;;;;;;;3.62;1.17;;;20.30;60.10;;;;;;2321081;55;20974;-81
2023/01/02 13:07:30;;;;;;;4.20;1.20;;;20.30;62.30;;;;;;2561252;54;20950;-81
2023/01/02 13:09:56;;;;;;;6.28;1.30;;;20.30;61.70;;;;;;2561515;54;20966;-84
2023/01/02 13:12:27;;;;;;;3.60;1.33;;;20.20;62.20;;;;;;2560828;54;20927;-83
2023/01/02 13:14:59;;;;;;;3.40;1.30;;;20.20;61.70;;;;;;2561620;54;20934;-83
2023/01/02 13:17:41;;;;;;;7.45;2.80;;;20.10;61.70;;;;;;2561499;54;21778;-83
2023/01/02 13:21:00;;;;;;;9.18;4.45;;;20.10;60.70;;;;;;2321350;55;20965;-83
2023/01/02 13:23:32;;;;;;;8.25;4.05;;;20.10;61.40;;;;;;2562144;54;21700;-83
2023/01/02 13:26:06;;;;;;;6.90;3.20;;;20.00;61.70;;;;;;2322181;55;21046;-84
2023/01/02 13:28:51;;;;;;;10.02;4.55;;;20.00;62.00;;;;;;2321381;55;21207;-83
2023/01/02 13:31:17;;;;;;;7.18;3.30;;;19.90;61.00;;;;;;2561106;54;21428;-82
2023/01/02 13:34:21;;;;;;;6.87;2.40;;;19.90;62.30;;;;;;2559127;54;20978;-82
2023/01/02 13:36:48;;;;;;;5.70;2.15;;;19.90;61.70;;;;;;2319644;55;22165;-81
2023/01/02 13:39:28;;;;;;;5.18;1.77;;;19.90;62.20;;;;;;2558004;54;20958;-81
2023/01/02 13:44:46;;;;;;;4.80;1.55;;;19.80;61.90;;;;;;2318980;55;21029;-85
2023/01/02 13:47:16;;;;;;;4.28;1.55;;;19.70;62.40;;;;;;2538515;54;20980;-83
2023/01/02 13:50:30;;;;;;;6.53;1.95;;;19.70;62.60;;;;;;2553582;54;21017;-82
2023/01/02 13:54:19;;;;;;;4.45;1.45;;;19.70;60.70;;;;;;2320573;55;21013;-84
2023/01/02 13:57:28;;;;;;;5.07;1.60;;;19.60;61.20;;;;;;2561498;54;21017;-84
2023/01/02 14:00:41;;;;;;;5.25;2.12;;;19.50;61.60;;;;;;2561722;54;20974;-84
2023/01/02 14:03:49;;;;;;;5.05;2.05;;;19.30;61.70;;;;;;2560765;54;20970;-83
2023/01/02 14:07:49;;;;;;;5.00;1.70;;;19.40;62.50;;;;;;2320333;55;20930;-84
2023/01/02 14:10:18;;;;;;;3.92;1.48;;;19.30;61.90;;;;;;2559418;54;20922;-87
2023/01/02 14:12:47;;;;;;;7.82;1.62;;;19.20;63.60;;;;;;2560717;54;21010;-86